createdAt,value
2022-09-13T00:01:34.733Z,7.63
2022-09-13T00:04:02.061Z,7.68
2022-09-13T00:06:29.316Z,7.97
2022-09-13T00:08:56.603Z,8.25
2022-09-13T00:11:25.153Z,7.97
2022-09-13T00:13:52.715Z,8.23
2022-09-13T00:16:21.114Z,8.40
2022-09-13T00:18:48.710Z,8.25
2022-09-13T00:21:17.248Z,8.43
2022-09-13T00:23:45.112Z,7.97
2022-09-13T00:26:13.687Z,7.90
2022-09-13T00:28:40.929Z,8.52
2022-09-13T00:31:09.014Z,8.90
2022-09-13T00:33:36.598Z,6.82
2022-09-13T00:36:04.940Z,8.63
2022-09-13T00:38:32.182Z,7.97
2022-09-13T00:40:59.324Z,8.25
2022-09-13T00:43:41.978Z,7.57
2022-09-13T00:46:09.354Z,6.93
2022-09-13T00:48:37.103Z,8.15
2022-09-13T00:51:05.286Z,7.85
2022-09-13T00:53:34.788Z,9.00
2022-09-13T00:56:28.279Z,8.30
2022-09-13T00:58:59.061Z,8.63
2022-09-13T01:01:29.182Z,8.27
2022-09-13T01:03:59.028Z,8.73
2022-09-13T01:06:29.557Z,8.25
2022-09-13T01:08:59.098Z,8.52
2022-09-13T01:11:29.954Z,7.78
2022-09-13T01:13:58.135Z,8.43
2022-09-13T01:16:26.134Z,8.18
2022-09-13T01:18:53.539Z,7.75
2022-09-13T01:21:39.491Z,8.63
2022-09-13T01:24:25.448Z,8.48
2022-09-13T01:26:52.790Z,8.13
2022-09-13T01:29:29.218Z,7.93
2022-09-13T01:32:36.099Z,7.57
2022-09-13T01:35:03.167Z,8.25
2022-09-13T01:37:43.798Z,7.93
2022-09-13T01:40:14.192Z,7.50
2022-09-13T01:43:00.537Z,8.00
2022-09-13T01:45:30.715Z,9.02
2022-09-13T01:48:14.323Z,8.23
2022-09-13T01:50:47.371Z,9.23
2022-09-13T01:53:32.561Z,9.18
2022-09-13T01:56:21.448Z,8.93
2022-09-13T01:58:55.935Z,8.73
2022-09-13T02:01:27.176Z,9.30
2022-09-13T02:03:56.613Z,8.73
2022-09-13T02:06:29.225Z,8.95
2022-09-13T02:09:00.702Z,8.85
2022-09-13T02:11:27.934Z,8.77
2022-09-13T02:14:21.353Z,7.50
2022-09-13T02:17:02.304Z,8.07
2022-09-13T02:19:35.164Z,7.57
2022-09-13T02:22:04.293Z,8.38
2022-09-13T02:24:37.035Z,8.20
2022-09-13T02:27:06.827Z,7.75
2022-09-13T02:29:35.060Z,8.15
2022-09-13T02:32:10.876Z,9.02
2022-09-13T02:34:40.937Z,8.20
2022-09-13T02:37:09.404Z,8.05
2022-09-13T02:39:38.505Z,8.07
2022-09-13T02:42:12.785Z,7.82
2022-09-13T02:44:46.965Z,7.15
2022-09-13T02:47:32.471Z,9.77
2022-09-13T02:50:29.818Z,8.80
2022-09-13T02:53:00.126Z,8.25
2022-09-13T02:55:33.706Z,9.25
2022-09-13T03:00:29.071Z,9.10
2022-09-13T03:02:57.399Z,8.43
2022-09-13T03:05:24.746Z,9.40
2022-09-13T03:07:52.428Z,8.32
2022-09-13T03:10:19.973Z,7.68
2022-09-13T03:12:50.242Z,8.35
2022-09-13T03:15:41.044Z,8.07
2022-09-13T03:18:16.034Z,7.63
2022-09-13T03:20:49.341Z,8.40
2022-09-13T03:23:35.414Z,7.85
2022-09-13T03:26:13.569Z,7.82
2022-09-13T03:28:46.927Z,7.65
2022-09-13T03:31:21.284Z,7.55
2022-09-13T03:34:07.075Z,7.50
2022-09-13T03:36:45.330Z,8.60
2022-09-13T03:39:27.712Z,7.53
2022-09-13T03:41:57.314Z,9.13
2022-09-13T03:44:25.583Z,9.70
2022-09-13T03:46:56.518Z,7.93
2022-09-13T03:49:24.290Z,7.60
2022-09-13T03:51:52.962Z,7.70
2022-09-13T03:54:21.847Z,8.07
2022-09-13T03:57:08.761Z,8.18
2022-09-13T03:59:39.369Z,8.23
2022-09-13T04:02:12.146Z,12.70
2022-09-13T04:04:40.265Z,10.13
2022-09-13T04:07:07.489Z,11.35
2022-09-13T04:09:34.833Z,10.35
2022-09-13T04:12:02.126Z,10.50
2022-09-13T04:14:29.272Z,10.52
2022-09-13T04:16:57.168Z,10.50
2022-09-13T04:19:25.119Z,11.82
2022-09-13T04:21:53.057Z,11.50
2022-09-13T04:24:20.594Z,9.73
2022-09-13T04:26:51.359Z,9.77
2022-09-13T04:29:18.734Z,10.27
2022-09-13T04:31:46.265Z,11.88
2022-09-13T04:34:14.018Z,10.02
2022-09-13T04:36:41.731Z,12.35
2022-09-13T04:39:08.841Z,11.52
2022-09-13T04:41:36.023Z,11.60
2022-09-13T04:44:03.554Z,10.20
2022-09-13T04:46:30.730Z,13.82
2022-09-13T04:48:57.962Z,11.00
2022-09-13T04:51:25.346Z,11.35
2022-09-13T04:53:55.910Z,11.25
2022-09-13T04:56:23.680Z,11.50
2022-09-13T04:58:54.801Z,11.73
2022-09-13T05:01:27.052Z,12.93
2022-09-13T05:03:55.451Z,11.23
2022-09-13T05:06:23.030Z,14.55
2022-09-13T05:08:52.273Z,12.70
2022-09-13T05:11:19.405Z,12.68
2022-09-13T05:13:52.991Z,13.48
2022-09-13T05:18:47.336Z,11.43
2022-09-13T05:21:14.907Z,12.52
2022-09-13T05:23:42.014Z,15.05
2022-09-13T05:26:09.539Z,14.25
2022-09-13T05:28:37.339Z,14.30
2022-09-13T05:31:09.098Z,12.68
2022-09-13T05:33:37.476Z,13.27
2022-09-13T05:36:05.190Z,13.32
2022-09-13T05:38:32.443Z,15.10
2022-09-13T05:41:00.353Z,14.88
2022-09-13T05:43:28.397Z,14.60
2022-09-13T05:46:07.969Z,18.45
2022-09-13T05:48:35.998Z,14.82
2022-09-13T05:51:06.345Z,14.80
2022-09-13T05:53:33.996Z,13.88
2022-09-13T05:56:01.509Z,18.00
2022-09-13T05:58:28.584Z,16.50
2022-09-13T06:00:56.087Z,18.65
2022-09-13T06:03:23.951Z,19.75
2022-09-13T06:05:51.990Z,18.23
2022-09-13T06:08:21.743Z,19.92
2022-09-13T06:10:56.056Z,16.90
2022-09-13T06:13:23.339Z,18.10
2022-09-13T06:15:50.552Z,15.80
2022-09-13T06:18:17.847Z,14.82
2022-09-13T06:20:45.228Z,14.45
2022-09-13T06:23:12.356Z,12.48
2022-09-13T06:25:39.598Z,11.07
2022-09-13T06:28:06.753Z,10.63
2022-09-13T06:30:33.915Z,11.13
2022-09-13T06:33:01.062Z,10.70
2022-09-13T06:35:28.286Z,10.98
2022-09-13T06:37:58.859Z,10.43
2022-09-13T06:40:26.479Z,8.68
2022-09-13T06:42:53.823Z,8.35
2022-09-13T06:45:21.757Z,8.10
2022-09-13T06:47:49.202Z,8.15
2022-09-13T06:50:16.743Z,7.40
2022-09-13T06:52:46.639Z,5.93
2022-09-13T06:55:14.090Z,7.43
2022-09-13T06:57:42.794Z,7.22
2022-09-13T07:00:10.423Z,7.57
2022-09-13T07:02:37.577Z,7.80
2022-09-13T07:05:04.903Z,6.57
2022-09-13T07:07:32.576Z,6.95
2022-09-13T07:10:01.051Z,6.72
2022-09-13T07:12:28.169Z,6.70
2022-09-13T07:14:57.965Z,6.05
2022-09-13T07:17:28.443Z,5.63
2022-09-13T07:19:58.019Z,5.90
2022-09-13T07:22:34.466Z,6.10
2022-09-13T07:25:01.999Z,5.47
2022-09-13T07:27:29.186Z,5.80
2022-09-13T07:29:56.351Z,5.03
2022-09-13T07:32:26.412Z,5.32
2022-09-13T07:34:55.744Z,6.78
2022-09-13T07:37:22.863Z,5.78
2022-09-13T07:39:50.113Z,6.43
2022-09-13T07:42:17.385Z,6.75
2022-09-13T07:44:44.595Z,6.63
2022-09-13T07:47:11.816Z,5.75
2022-09-13T07:49:39.107Z,5.85
2022-09-13T07:52:06.278Z,5.93
2022-09-13T07:54:35.498Z,5.18
2022-09-13T07:57:02.623Z,5.57
2022-09-13T07:59:30.411Z,5.80
2022-09-13T08:01:57.620Z,5.72
2022-09-13T08:04:25.833Z,5.90
2022-09-13T08:06:53.057Z,6.75
2022-09-13T08:09:20.349Z,7.15
2022-09-13T08:11:49.586Z,6.97
2022-09-13T08:14:18.191Z,7.35
2022-09-13T08:16:45.429Z,6.82
2022-09-13T08:19:17.009Z,5.90
2022-09-13T08:21:44.863Z,6.30
2022-09-13T08:24:19.204Z,6.18
2022-09-13T08:26:46.521Z,5.47
2022-09-13T08:29:14.194Z,5.78
2022-09-13T08:31:42.932Z,6.40
2022-09-13T08:34:14.676Z,10.82
2022-09-13T08:36:42.010Z,7.25
2022-09-13T08:39:09.665Z,6.25
2022-09-13T08:41:49.392Z,5.75
2022-09-13T08:44:23.497Z,6.18
2022-09-13T08:46:51.189Z,5.35
2022-09-13T08:49:21.651Z,4.97
2022-09-13T08:51:50.295Z,3.67
2022-09-13T08:54:18.157Z,3.78
2022-09-13T08:56:47.366Z,3.65
2022-09-13T08:59:14.512Z,3.65
2022-09-13T09:01:53.806Z,3.35
2022-09-13T09:04:27.296Z,3.55
2022-09-13T09:07:04.487Z,3.17
2022-09-13T09:09:35.066Z,3.08
2022-09-13T09:12:22.446Z,3.00
2022-09-13T09:14:57.992Z,3.08
2022-09-13T09:17:27.901Z,2.78
2022-09-13T09:20:00.716Z,2.55
2022-09-13T09:22:29.783Z,2.70
2022-09-13T09:24:57.876Z,2.70
2022-09-13T09:27:25.932Z,2.70
2022-09-13T09:29:55.267Z,2.17
2022-09-13T09:32:31.604Z,2.42
2022-09-13T09:35:12.876Z,2.03
2022-09-13T09:37:41.143Z,2.70
2022-09-13T09:40:12.909Z,2.40
2022-09-13T09:42:42.497Z,2.78
2022-09-13T09:45:21.917Z,2.75
2022-09-13T09:47:50.313Z,2.58
2022-09-13T09:50:18.884Z,2.58
2022-09-13T09:52:57.313Z,2.60
2022-09-13T09:55:27.995Z,2.90
2022-09-13T09:57:56.495Z,2.53
2022-09-13T10:00:24.929Z,2.45
2022-09-13T10:02:57.693Z,2.50
2022-09-13T10:05:27.835Z,2.50
2022-09-13T10:07:59.648Z,2.90
2022-09-13T10:10:36.803Z,2.50
2022-09-13T10:13:05.563Z,2.70
2022-09-13T10:15:34.767Z,2.88
2022-09-13T10:18:02.520Z,3.55
2022-09-13T10:20:29.632Z,2.58
2022-09-13T10:23:18.587Z,3.03
2022-09-13T10:25:55.868Z,2.53
2022-09-13T10:28:23.149Z,2.75
2022-09-13T10:30:55.325Z,2.60
2022-09-13T10:33:26.442Z,2.70
2022-09-13T10:35:55.739Z,2.60
2022-09-13T10:38:46.051Z,2.20
2022-09-13T10:41:22.041Z,2.20
2022-09-13T10:43:50.268Z,2.40
2022-09-13T10:46:23.275Z,2.35
2022-09-13T10:48:56.443Z,2.70
2022-09-13T10:51:26.501Z,2.00
2022-09-13T10:54:12.457Z,1.90
2022-09-13T10:56:39.537Z,2.30
2022-09-13T10:59:17.637Z,2.20
2022-09-13T11:02:03.247Z,1.95
2022-09-13T11:04:40.612Z,1.80
2022-09-13T11:07:30.636Z,2.03
2022-09-13T11:10:04.014Z,1.90
2022-09-13T11:12:36.831Z,1.60
2022-09-13T11:15:18.338Z,1.80
2022-09-13T11:17:45.597Z,1.67
2022-09-13T11:20:21.324Z,1.60
2022-09-13T11:22:48.364Z,1.77
2022-09-13T11:25:25.534Z,1.80
2022-09-13T11:27:58.726Z,1.40
2022-09-13T11:30:29.901Z,1.80
2022-09-13T11:33:03.626Z,1.70
2022-09-13T11:35:49.680Z,1.50
2022-09-13T11:38:22.829Z,1.80
2022-09-13T11:41:01.031Z,1.90
2022-09-13T11:43:47.491Z,1.90
2022-09-13T11:46:26.118Z,1.80
2022-09-13T11:49:28.967Z,1.90
2022-09-13T11:52:03.829Z,1.50
2022-09-13T11:54:43.306Z,1.88
2022-09-13T11:57:15.870Z,1.67
2022-09-13T11:59:48.837Z,1.73
2022-09-13T12:02:23.798Z,1.58
2022-09-13T12:05:11.284Z,1.70
2022-09-13T12:07:43.169Z,1.70
2022-09-13T12:10:16.180Z,2.75
2022-09-13T12:12:44.005Z,1.60
2022-09-13T12:15:30.026Z,3.30
2022-09-13T12:17:59.298Z,1.50
2022-09-13T12:20:31.755Z,1.65
2022-09-13T12:23:01.293Z,1.58
2022-09-13T12:25:57.927Z,1.33
2022-09-13T12:28:30.505Z,1.40
2022-09-13T12:31:00.177Z,1.38
2022-09-13T12:33:27.330Z,1.40
2022-09-13T12:35:54.406Z,1.20
2022-09-13T12:38:21.618Z,1.33
2022-09-13T12:40:58.148Z,1.00
2022-09-13T12:43:39.553Z,1.40
2022-09-13T12:46:16.425Z,1.30
2022-09-13T12:48:43.562Z,1.00
2022-09-13T12:51:28.985Z,1.17
2022-09-13T12:54:07.500Z,1.17
2022-09-13T12:56:48.191Z,1.08
2022-09-13T12:59:25.231Z,1.20
2022-09-13T13:01:52.795Z,1.30
2022-09-13T13:04:26.279Z,1.20
2022-09-13T13:06:55.306Z,1.13
2022-09-13T13:09:31.484Z,1.17
2022-09-13T13:11:59.153Z,1.27
2022-09-13T13:14:46.966Z,1.20
2022-09-13T13:17:32.838Z,1.38
2022-09-13T13:20:00.166Z,1.08
2022-09-13T13:22:45.845Z,1.40
2022-09-13T13:25:46.363Z,1.20
2022-09-13T13:28:45.592Z,1.40
2022-09-13T13:31:32.767Z,1.40
2022-09-13T13:33:59.900Z,1.52
2022-09-13T13:36:28.782Z,1.40
2022-09-13T13:38:57.012Z,1.30
2022-09-13T13:41:36.794Z,1.30
2022-09-13T13:44:23.835Z,1.27
2022-09-13T13:46:51.038Z,1.10
2022-09-13T13:49:30.450Z,1.20
2022-09-13T13:52:09.200Z,1.27
2022-09-13T13:54:58.371Z,1.42
2022-09-13T13:57:25.494Z,1.38
2022-09-13T13:59:55.549Z,1.60
2022-09-13T14:02:31.370Z,1.42
2022-09-13T14:04:58.607Z,1.95
2022-09-13T14:07:46.423Z,1.50
2022-09-13T14:10:13.704Z,1.40
2022-09-13T14:12:40.822Z,1.60
2022-09-13T14:15:18.795Z,1.38
2022-09-13T14:18:02.934Z,1.70
2022-09-13T14:20:30.063Z,1.50
2022-09-13T14:23:16.250Z,1.58
2022-09-13T14:25:43.786Z,1.67
2022-09-13T14:28:15.223Z,2.00
2022-09-13T14:30:42.368Z,1.80
2022-09-13T14:33:23.332Z,1.90
2022-09-13T14:35:57.589Z,2.00
2022-09-13T14:38:30.970Z,1.70
2022-09-13T14:41:15.864Z,1.70
2022-09-13T14:43:43.936Z,1.85
2022-09-13T14:46:18.735Z,1.77
2022-09-13T14:48:51.689Z,2.00
2022-09-13T14:51:28.761Z,2.50
2022-09-13T14:54:01.022Z,1.85
2022-09-13T14:56:38.101Z,1.80
2022-09-13T14:59:14.746Z,1.67
2022-09-13T15:01:41.878Z,1.70
2022-09-13T15:04:09.221Z,1.95
2022-09-13T15:06:40.731Z,1.90
2022-09-13T15:09:13.877Z,2.30
2022-09-13T15:11:57.112Z,1.83
2022-09-13T15:14:26.085Z,1.90
2022-09-13T15:16:54.902Z,1.83
2022-09-13T15:19:24.999Z,1.90
2022-09-13T15:21:52.172Z,2.10
2022-09-13T15:24:22.855Z,1.88
2022-09-13T15:26:50.061Z,2.20
2022-09-13T15:29:20.249Z,1.98
2022-09-13T15:31:47.695Z,2.20
2022-09-13T15:34:17.928Z,1.90
2022-09-13T15:36:45.899Z,2.60
2022-09-13T15:39:17.914Z,2.20
2022-09-13T15:41:55.718Z,1.95
2022-09-13T15:44:23.276Z,2.30
2022-09-13T15:46:55.075Z,1.90
2022-09-13T15:49:25.130Z,1.88
2022-09-13T15:51:54.231Z,2.03
2022-09-13T15:54:22.982Z,2.00
2022-09-13T15:56:53.560Z,2.75
2022-09-13T15:59:21.847Z,2.15
2022-09-13T16:01:50.127Z,1.90
2022-09-13T16:04:17.357Z,1.85
2022-09-13T16:06:44.671Z,3.10
2022-09-13T16:09:18.542Z,2.05
2022-09-13T16:11:46.614Z,2.20
2022-09-13T16:14:14.181Z,1.75
2022-09-13T16:16:41.410Z,2.28
2022-09-13T16:19:16.170Z,2.28
2022-09-13T16:24:29.409Z,2.40
2022-09-13T16:26:56.728Z,1.80
2022-09-13T16:29:23.957Z,1.60
2022-09-13T16:31:51.256Z,1.83
2022-09-13T16:34:18.450Z,1.60
2022-09-13T16:36:45.707Z,1.75
2022-09-13T16:39:12.985Z,1.98
2022-09-13T16:41:40.663Z,1.95
2022-09-13T16:44:09.014Z,1.80
2022-09-13T16:46:36.290Z,1.77
2022-09-13T16:49:03.594Z,2.65
2022-09-13T16:51:30.958Z,3.13
2022-09-13T16:53:58.354Z,3.72
2022-09-13T16:56:26.203Z,3.10
2022-09-13T16:58:54.201Z,3.10
2022-09-13T17:01:23.468Z,4.10
2022-09-13T17:03:54.070Z,6.45
2022-09-13T17:06:22.597Z,6.88
2022-09-13T17:08:55.377Z,6.30
2022-09-13T17:11:23.672Z,4.70
2022-09-13T17:13:52.016Z,4.60
2022-09-13T17:16:23.885Z,5.05
2022-09-13T17:18:51.360Z,4.55
2022-09-13T17:21:18.595Z,4.05
2022-09-13T17:23:46.038Z,5.90
2022-09-13T17:26:13.229Z,4.60
2022-09-13T17:28:40.383Z,5.47
2022-09-13T17:31:07.959Z,5.20
2022-09-13T17:33:35.153Z,5.97
2022-09-13T17:36:04.835Z,6.20
2022-09-13T17:38:31.987Z,5.78
2022-09-13T17:41:07.024Z,4.18
2022-09-13T17:43:34.564Z,3.60
2022-09-13T17:46:05.729Z,3.15
2022-09-13T17:48:33.234Z,3.72
2022-09-13T17:51:04.797Z,4.60
2022-09-13T17:53:32.440Z,3.85
2022-09-13T17:55:59.608Z,3.30
2022-09-13T17:58:27.195Z,3.70
2022-09-13T18:01:01.644Z,3.22
2022-09-13T18:03:29.651Z,3.17
2022-09-13T18:05:58.335Z,3.53
2022-09-13T18:08:26.391Z,3.85
2022-09-13T18:11:12.134Z,3.30
2022-09-13T18:13:41.228Z,2.90
2022-09-13T18:16:10.065Z,3.20
2022-09-13T18:18:43.134Z,3.20
2022-09-13T18:21:11.122Z,3.20
2022-09-13T18:23:38.420Z,3.70
2022-09-13T18:26:10.632Z,3.40
2022-09-13T18:28:38.550Z,3.35
2022-09-13T18:31:07.075Z,3.40
2022-09-13T18:33:34.831Z,3.30
2022-09-13T18:36:09.327Z,2.88
2022-09-13T18:38:37.893Z,3.55
2022-09-13T18:41:06.543Z,2.80
2022-09-13T18:43:33.838Z,3.17
2022-09-13T18:46:04.688Z,3.05
2022-09-13T18:48:33.040Z,2.85
2022-09-13T18:51:00.723Z,2.97
2022-09-13T18:53:34.401Z,3.30
2022-09-13T18:56:03.062Z,3.10
2022-09-13T18:58:34.357Z,2.83
2022-09-13T19:01:01.560Z,2.85
2022-09-13T19:03:28.874Z,2.83
2022-09-13T19:05:56.263Z,2.60
2022-09-13T19:08:23.594Z,3.25
2022-09-13T19:10:50.937Z,3.67
2022-09-13T19:13:18.099Z,2.78
2022-09-13T19:15:45.316Z,3.17
2022-09-13T19:18:12.545Z,3.30
2022-09-13T19:20:39.751Z,2.97
2022-09-13T19:23:06.890Z,3.03
2022-09-13T19:25:35.411Z,3.17
2022-09-13T19:28:02.695Z,3.25
2022-09-13T19:30:29.890Z,3.45
2022-09-13T19:32:57.012Z,3.75
2022-09-13T19:35:24.317Z,3.47
2022-09-13T19:37:51.454Z,3.33
2022-09-13T19:40:18.768Z,3.55
2022-09-13T19:42:46.108Z,3.20
2022-09-13T19:45:13.682Z,3.50
2022-09-13T19:48:34.279Z,3.15
2022-09-13T19:50:27.976Z,3.58
2022-09-13T19:52:55.214Z,3.95
2022-09-13T19:55:23.700Z,3.67
2022-09-13T19:57:50.909Z,3.97
2022-09-13T20:00:18.316Z,3.65
2022-09-13T20:02:48.296Z,3.65
2022-09-13T20:05:15.613Z,3.30
2022-09-13T20:07:44.847Z,3.42
2022-09-13T20:10:12.031Z,3.75
2022-09-13T20:12:40.511Z,3.90
2022-09-13T20:15:07.946Z,3.80
2022-09-13T20:17:35.117Z,3.70
2022-09-13T20:20:02.465Z,4.13
2022-09-13T20:22:29.804Z,3.55
2022-09-13T20:24:57.776Z,4.13
2022-09-13T20:27:27.859Z,4.50
2022-09-13T20:29:57.770Z,3.93
2022-09-13T20:32:25.094Z,3.60
2022-09-13T20:34:52.445Z,3.50
2022-09-13T20:37:19.782Z,3.78
2022-09-13T20:39:48.771Z,3.70
2022-09-13T20:42:17.828Z,4.18
2022-09-13T20:44:46.040Z,3.80
2022-09-13T20:47:13.484Z,4.18
2022-09-13T20:49:40.670Z,3.63
2022-09-13T20:52:07.781Z,4.00
2022-09-13T20:54:34.926Z,3.80
2022-09-13T20:57:02.120Z,3.58
2022-09-13T20:59:29.495Z,4.07
2022-09-13T21:01:56.791Z,3.40
2022-09-13T21:04:25.534Z,3.70
2022-09-13T21:07:14.723Z,3.55
2022-09-13T21:09:42.215Z,3.70
2022-09-13T21:12:09.410Z,3.47
2022-09-13T21:14:37.582Z,4.10
2022-09-13T21:17:06.678Z,3.72
2022-09-13T21:19:34.626Z,3.90
2022-09-13T21:22:04.895Z,4.32
2022-09-13T21:24:32.059Z,4.32
2022-09-13T21:26:59.465Z,4.80
2022-09-13T21:29:26.766Z,6.45
2022-09-13T21:31:55.858Z,6.90
2022-09-13T21:34:24.569Z,5.95
2022-09-13T21:36:51.761Z,6.20
2022-09-13T21:39:19.289Z,7.57
2022-09-13T21:41:47.550Z,6.07
2022-09-13T21:44:14.792Z,5.85
2022-09-13T21:46:42.343Z,5.05
2022-09-13T21:49:11.572Z,5.30
2022-09-13T21:51:38.774Z,4.10
2022-09-13T21:54:07.544Z,4.78
2022-09-13T21:56:38.156Z,3.35
2022-09-13T21:59:06.542Z,4.63
2022-09-13T22:01:35.146Z,5.10
2022-09-13T22:04:02.876Z,5.10
2022-09-13T22:06:35.142Z,5.10
2022-09-13T22:09:04.756Z,4.38
2022-09-13T22:11:33.071Z,3.70
2022-09-13T22:14:02.117Z,3.53
2022-09-13T22:16:30.972Z,4.90
2022-09-13T22:18:59.579Z,6.88
2022-09-13T22:21:29.210Z,7.22
2022-09-13T22:23:56.857Z,7.50
2022-09-13T22:26:25.504Z,7.60
2022-09-13T22:28:53.784Z,7.13
2022-09-13T22:31:22.101Z,6.88
2022-09-13T22:33:49.519Z,6.32
2022-09-13T22:36:17.533Z,5.30
2022-09-13T22:38:45.731Z,5.88
2022-09-13T22:41:14.022Z,5.78
2022-09-13T22:43:41.830Z,5.60
2022-09-13T22:46:10.606Z,5.55
2022-09-13T22:48:38.285Z,5.25
2022-09-13T22:51:05.511Z,5.00
2022-09-13T22:53:33.851Z,4.65
2022-09-13T22:56:05.181Z,4.80
2022-09-13T22:58:32.679Z,4.40
2022-09-13T23:01:04.365Z,3.90
2022-09-13T23:03:35.244Z,4.10
2022-09-13T23:06:02.570Z,3.55
2022-09-13T23:08:29.906Z,3.55
2022-09-13T23:10:57.916Z,3.20
2022-09-13T23:13:25.096Z,3.33
2022-09-13T23:15:52.316Z,3.10
2022-09-13T23:18:19.568Z,2.88
2022-09-13T23:20:55.874Z,3.47
2022-09-13T23:23:23.226Z,3.28
2022-09-13T23:25:50.483Z,3.33
2022-09-13T23:28:17.797Z,4.15
2022-09-13T23:30:45.020Z,4.32
2022-09-13T23:33:12.530Z,4.78
2022-09-13T23:35:42.873Z,4.90
2022-09-13T23:38:11.350Z,5.72
2022-09-13T23:40:38.900Z,5.68
2022-09-13T23:43:06.262Z,5.22
2022-09-13T23:45:33.517Z,5.80
2022-09-13T23:48:00.756Z,5.78
2022-09-13T23:50:28.006Z,6.13
2022-09-13T23:52:55.356Z,5.63
2022-09-13T23:55:22.580Z,6.00
2022-09-13T23:57:49.796Z,5.57
